Jena Marie C. — WDD4969 — position and weather

sailwx.info

Track history (hours):
 
Tides and Currents Weather Stations Pressure Air Temp Water Temp Dewpoint Dewpoint Depression Visibility Wind Speed Wind Dir Waves Ship Positions

Jena Marie C.

Owner: Scott C. Marine Towing, LLC, Marrero, LA. More information available from US FCC via Universal Licensing System and Coast Guard Vessel Documentation Center.

Last reported at 2016-Jun-25 08:33 UTC. Time now 2016-Jun-25 08:57 UTC.
Position N 29°54' W 090°07'.

Length 19 m; draft 2.5 m.

Type: Towing. MMSI: 367151880.

Date/timePositionNaut miles runAvg speedWind from/ knotsBaromVisibWave heightAir tempDewpointWater temp
2016-Jun-25 08:33N 29°54' W 090°07'0 0.0
2016-Jun-25 07:33N 29°54' W 090°07'0 0.0
2016-Jun-25 06:33N 29°54' W 090°07'0 0.0
2016-Jun-25 05:33N 29°54' W 090°07'0 0.0
2016-Jun-25 04:33N 29°54' W 090°07'0 0.0
2016-Jun-25 03:33N 29°54' W 090°07'0 0.0
2016-Jun-25 02:33N 29°54' W 090°07'3 3.1
2016-Jun-25 01:33N 29°55' W 090°04'0 0.0
2016-Jun-25 00:33N 29°55' W 090°04'0 0.0
2016-Jun-24 23:34N 29°55' W 090°04'0 0.0
2016-Jun-24 22:33N 29°55' W 090°04'0 0.0
2016-Jun-24 21:34N 29°55' W 090°04'2 1.9
2016-Jun-24 20:33N 29°55' W 090°06'6 5.5
2016-Jun-24 19:33N 29°56' W 090°12'2 1.7
2016-Jun-24 18:27N 29°57' W 090°10'4 4.0
2016-Jun-24 17:33N 29°55' W 090°07'5 4.6
2016-Jun-24 16:34N 29°57' W 090°03'1 1.3
2016-Jun-24 15:33N 29°58' W 090°02'1 0.8
2016-Jun-24 14:33N 29°59' W 090°01'1 0.6
2016-Jun-24 13:33N 29°60' W 090°01'0 0.0
2016-Jun-24 12:33N 29°60' W 090°01'0 0.0
2016-Jun-24 11:33N 29°60' W 090°01'0 0.0
2016-Jun-24 10:33N 29°60' W 090°01'0 0.0
2016-Jun-24 09:33N 29°60' W 090°01'0 0.0
2016-Jun-24 08:33N 29°60' W 090°01'0 0.0
2016-Jun-24 07:33N 29°60' W 090°01'0 0.0
2016-Jun-24 04:33N 29°60' W 090°01'0 0.0
2016-Jun-24 03:33N 29°60' W 090°01'0 0.0
2016-Jun-24 02:33N 29°60' W 090°01'0 0.0
2016-Jun-24 01:33N 29°60' W 090°01'0 0.0
2016-Jun-24 00:33N 29°60' W 090°01'0 0.0
2016-Jun-23 23:33N 29°60' W 090°01'0 0.0
2016-Jun-23 22:33N 29°60' W 090°01'5 4.9
2016-Jun-23 21:33N 30°01' W 089°55'  
2016-Jun-20 20:15N 29°59' W 090°01'1 1.4
2016-Jun-20 19:33N 29°58' W 090°02'2 2.2
2016-Jun-20 18:33N 29°56' W 090°03'5 4.8
2016-Jun-20 17:33N 29°57' W 090°09'3 3.5
2016-Jun-20 16:33N 29°56' W 090°12'2 0.2
2016-Jun-20 06:32N 29°57' W 090°10'3 3.0
2016-Jun-20 05:33N 29°55' W 090°07'2 2.1
2016-Jun-20 04:33N 29°55' W 090°05'2 1.7
2016-Jun-20 03:33N 29°53' W 090°04'0 0.1
2016-Jun-20 02:33N 29°53' W 090°04'0 0.5
2016-Jun-20 01:33N 29°53' W 090°04'0 0.3
2016-Jun-20 00:33N 29°53' W 090°04'0 0.1
2016-Jun-19 23:33N 29°53' W 090°04'2 1.7
2016-Jun-19 22:33N 29°55' W 090°05'2 1.7
2016-Jun-19 21:33N 29°54' W 090°07'0 0.0
2016-Jun-19 20:33N 29°54' W 090°07'0 0.0
2016-Jun-19 19:33N 29°54' W 090°07'0 0.0
2016-Jun-19 18:33N 29°54' W 090°07'0 0.0
2016-Jun-19 17:33N 29°54' W 090°07'0 0.0
2016-Jun-19 16:33N 29°54' W 090°07'0 0.0
2016-Jun-19 15:33N 29°54' W 090°07'0 0.0
2016-Jun-19 14:33N 29°54' W 090°07'0 0.0
2016-Jun-19 13:33N 29°54' W 090°07'0 0.0
2016-Jun-19 12:33N 29°54' W 090°07'4 3.9
2016-Jun-19 11:33N 29°56' W 090°11'2 2.0
2016-Jun-19 10:33N 29°57' W 090°09'5 4.6
2016-Jun-19 09:33N 29°55' W 090°05'4 4.3
2016-Jun-19 08:33N 29°56' W 089°60'7 0.5
2016-Jun-18 20:17N 29°54' W 090°07'3 4.8
2016-Jun-18 19:33N 29°57' W 090°10'2 1.9
2016-Jun-18 18:28N 29°55' W 090°12'3 3.7
2016-Jun-18 17:34N 29°56' W 090°08'3 3.4
2016-Jun-18 16:33N 29°55' W 090°05'3 3.4
2016-Jun-18 15:33N 29°51' W 090°04'3 2.7
2016-Jun-18 14:17N 29°55' W 090°05'2 0.5
2016-Jun-18 10:33N 29°54' W 090°07'0 0.0
2016-Jun-18 09:34N 29°54' W 090°07'0 0.0
2016-Jun-18 08:34N 29°54' W 090°07'0 0.0
2016-Jun-18 07:34N 29°54' W 090°07'4 3.1
2016-Jun-18 06:21N 29°56' W 090°11'2 1.9
2016-Jun-18 05:33N 29°57' W 090°10'3 3.3
2016-Jun-18 04:33N 29°54' W 090°07'0 0.2
2016-Jun-18 03:34N 29°54' W 090°07'0 0.0
2016-Jun-18 02:34N 29°54' W 090°07'0 0.0
2016-Jun-18 01:34N 29°54' W 090°07'0 0.0
2016-Jun-18 00:33N 29°54' W 090°07'0 0.0
2016-Jun-17 23:33N 29°54' W 090°07'0 0.0
2016-Jun-17 22:30N 29°54' W 090°07'0 0.0
2016-Jun-17 21:33N 29°54' W 090°07'0 0.0
2016-Jun-17 17:33N 29°54' W 090°07'0 0.0
2016-Jun-17 14:33N 29°54' W 090°07'0 0.0
2016-Jun-17 13:34N 29°54' W 090°07'0 0.0
2016-Jun-17 12:15N 29°54' W 090°07'0 0.0
2016-Jun-17 11:33N 29°54' W 090°07'0 0.0
2016-Jun-17 10:32N 29°54' W 090°07'0 0.0
2016-Jun-17 09:34N 29°54' W 090°07'0 0.0
2016-Jun-17 08:34N 29°54' W 090°07'2 1.8
2016-Jun-17 07:34N 29°55' W 090°05'2 1.7
2016-Jun-17 06:34N 29°53' W 090°04'6 0.3
2016-Jun-16 08:18N 29°49' W 090°00'5 6.5
2016-Jun-16 07:33N 29°53' W 089°58'2 2.5
2016-Jun-16 06:33N 29°55' W 089°58'6 5.5
2016-Jun-16 05:33N 29°55' W 090°04'2 1.6
2016-Jun-16 04:33N 29°54' W 090°05'0 0.2
2016-Jun-16 03:33N 29°54' W 090°05'0 0.0
2016-Jun-16 02:33N 29°54' W 090°05'1 0.8
2016-Jun-16 01:33N 29°55' W 090°05'2 2.1
2016-Jun-16 00:33N 29°54' W 090°07'2 2.0
2016-Jun-15 23:33N 29°55' W 090°05'4 3.6
2016-Jun-15 22:33N 29°51' W 090°04'3 3.0
2016-Jun-15 21:33N 29°54' W 090°05'2 1.9
2016-Jun-15 20:33N 29°54' W 090°07'0 0.4
2016-Jun-15 19:33N 29°54' W 090°07'1 0.8
2016-Jun-15 18:30N 29°55' W 090°06'1 0.8
2016-Jun-15 17:33N 29°54' W 090°07'0 0.1
2016-Jun-15 16:33N 29°54' W 090°07'0 0.0
2016-Jun-15 15:33N 29°54' W 090°07'0 0.0
2016-Jun-15 14:33N 29°54' W 090°07'0 0.0
2016-Jun-15 13:33N 29°54' W 090°07'0 0.3
2016-Jun-15 12:33N 29°54' W 090°07'0 0.0
2016-Jun-15 11:33N 29°54' W 090°07'0 0.0
2016-Jun-15 10:33N 29°54' W 090°07'0 0.0
2016-Jun-15 09:33N 29°54' W 090°07'  
Track history (hours):
 
Tides and Currents Weather Stations Pressure Air Temp Water Temp Dewpoint Dewpoint Depression Visibility Wind Speed Wind Dir Waves Ship Positions

Jena Marie C.

Owner: Scott C. Marine Towing, LLC, Marrero, LA. More information available from US FCC via Universal Licensing System and Coast Guard Vessel Documentation Center.

Last reported at 2016-Jun-25 08:33 UTC. Time now 2016-Jun-25 08:57 UTC.
Position N 29°54' W 090°07'.

Length 19 m; draft 2.5 m.

Type: Towing. MMSI: 367151880.

Date/timePositionNaut miles runAvg speedWind from/ knotsBaromVisibWave heightAir tempDewpointWater temp
2016-Jun-25 08:33N 29°54' W 090°07'0 0.0
2016-Jun-25 07:33N 29°54' W 090°07'0 0.0
2016-Jun-25 06:33N 29°54' W 090°07'0 0.0
2016-Jun-25 05:33N 29°54' W 090°07'0 0.0
2016-Jun-25 04:33N 29°54' W 090°07'0 0.0
2016-Jun-25 03:33N 29°54' W 090°07'0 0.0
2016-Jun-25 02:33N 29°54' W 090°07'3 3.1
2016-Jun-25 01:33N 29°55' W 090°04'0 0.0
2016-Jun-25 00:33N 29°55' W 090°04'0 0.0
2016-Jun-24 23:34N 29°55' W 090°04'0 0.0
2016-Jun-24 22:33N 29°55' W 090°04'0 0.0
2016-Jun-24 21:34N 29°55' W 090°04'2 1.9
2016-Jun-24 20:33N 29°55' W 090°06'6 5.5
2016-Jun-24 19:33N 29°56' W 090°12'2 1.7
2016-Jun-24 18:27N 29°57' W 090°10'4 4.0
2016-Jun-24 17:33N 29°55' W 090°07'5 4.6
2016-Jun-24 16:34N 29°57' W 090°03'1 1.3
2016-Jun-24 15:33N 29°58' W 090°02'1 0.8
2016-Jun-24 14:33N 29°59' W 090°01'1 0.6
2016-Jun-24 13:33N 29°60' W 090°01'0 0.0
2016-Jun-24 12:33N 29°60' W 090°01'0 0.0
2016-Jun-24 11:33N 29°60' W 090°01'0 0.0
2016-Jun-24 10:33N 29°60' W 090°01'0 0.0
2016-Jun-24 09:33N 29°60' W 090°01'0 0.0
2016-Jun-24 08:33N 29°60' W 090°01'0 0.0
2016-Jun-24 07:33N 29°60' W 090°01'0 0.0
2016-Jun-24 04:33N 29°60' W 090°01'0 0.0
2016-Jun-24 03:33N 29°60' W 090°01'0 0.0
2016-Jun-24 02:33N 29°60' W 090°01'0 0.0
2016-Jun-24 01:33N 29°60' W 090°01'0 0.0
2016-Jun-24 00:33N 29°60' W 090°01'0 0.0
2016-Jun-23 23:33N 29°60' W 090°01'0 0.0
2016-Jun-23 22:33N 29°60' W 090°01'5 4.9
2016-Jun-23 21:33N 30°01' W 089°55'  
2016-Jun-20 20:15N 29°59' W 090°01'1 1.4
2016-Jun-20 19:33N 29°58' W 090°02'2 2.2
2016-Jun-20 18:33N 29°56' W 090°03'5 4.8
2016-Jun-20 17:33N 29°57' W 090°09'3 3.5
2016-Jun-20 16:33N 29°56' W 090°12'2 0.2
2016-Jun-20 06:32N 29°57' W 090°10'3 3.0
2016-Jun-20 05:33N 29°55' W 090°07'2 2.1
2016-Jun-20 04:33N 29°55' W 090°05'2 1.7
2016-Jun-20 03:33N 29°53' W 090°04'0 0.1
2016-Jun-20 02:33N 29°53' W 090°04'0 0.5
2016-Jun-20 01:33N 29°53' W 090°04'0 0.3
2016-Jun-20 00:33N 29°53' W 090°04'0 0.1
2016-Jun-19 23:33N 29°53' W 090°04'2 1.7
2016-Jun-19 22:33N 29°55' W 090°05'2 1.7
2016-Jun-19 21:33N 29°54' W 090°07'0 0.0
2016-Jun-19 20:33N 29°54' W 090°07'0 0.0
2016-Jun-19 19:33N 29°54' W 090°07'0 0.0
2016-Jun-19 18:33N 29°54' W 090°07'0 0.0
2016-Jun-19 17:33N 29°54' W 090°07'0 0.0
2016-Jun-19 16:33N 29°54' W 090°07'0 0.0
2016-Jun-19 15:33N 29°54' W 090°07'0 0.0
2016-Jun-19 14:33N 29°54' W 090°07'0 0.0
2016-Jun-19 13:33N 29°54' W 090°07'0 0.0
2016-Jun-19 12:33N 29°54' W 090°07'4 3.9
2016-Jun-19 11:33N 29°56' W 090°11'2 2.0
2016-Jun-19 10:33N 29°57' W 090°09'5 4.6
2016-Jun-19 09:33N 29°55' W 090°05'4 4.3
2016-Jun-19 08:33N 29°56' W 089°60'7 0.5
2016-Jun-18 20:17N 29°54' W 090°07'3 4.8
2016-Jun-18 19:33N 29°57' W 090°10'2 1.9
2016-Jun-18 18:28N 29°55' W 090°12'3 3.7
2016-Jun-18 17:34N 29°56' W 090°08'3 3.4
2016-Jun-18 16:33N 29°55' W 090°05'3 3.4
2016-Jun-18 15:33N 29°51' W 090°04'3 2.7
2016-Jun-18 14:17N 29°55' W 090°05'2 0.5
2016-Jun-18 10:33N 29°54' W 090°07'0 0.0
2016-Jun-18 09:34N 29°54' W 090°07'0 0.0
2016-Jun-18 08:34N 29°54' W 090°07'0 0.0
2016-Jun-18 07:34N 29°54' W 090°07'4 3.1
2016-Jun-18 06:21N 29°56' W 090°11'2 1.9
2016-Jun-18 05:33N 29°57' W 090°10'3 3.3
2016-Jun-18 04:33N 29°54' W 090°07'0 0.2
2016-Jun-18 03:34N 29°54' W 090°07'0 0.0
2016-Jun-18 02:34N 29°54' W 090°07'0 0.0
2016-Jun-18 01:34N 29°54' W 090°07'0 0.0
2016-Jun-18 00:33N 29°54' W 090°07'0 0.0
2016-Jun-17 23:33N 29°54' W 090°07'0 0.0
2016-Jun-17 22:30N 29°54' W 090°07'0 0.0
2016-Jun-17 21:33N 29°54' W 090°07'0 0.0
2016-Jun-17 17:33N 29°54' W 090°07'0 0.0
2016-Jun-17 14:33N 29°54' W 090°07'0 0.0
2016-Jun-17 13:34N 29°54' W 090°07'0 0.0
2016-Jun-17 12:15N 29°54' W 090°07'0 0.0
2016-Jun-17 11:33N 29°54' W 090°07'0 0.0
2016-Jun-17 10:32N 29°54' W 090°07'0 0.0
2016-Jun-17 09:34N 29°54' W 090°07'0 0.0
2016-Jun-17 08:34N 29°54' W 090°07'2 1.8
2016-Jun-17 07:34N 29°55' W 090°05'2 1.7
2016-Jun-17 06:34N 29°53' W 090°04'6 0.3
2016-Jun-16 08:18N 29°49' W 090°00'5 6.5
2016-Jun-16 07:33N 29°53' W 089°58'2 2.5
2016-Jun-16 06:33N 29°55' W 089°58'6 5.5
2016-Jun-16 05:33N 29°55' W 090°04'2 1.6
2016-Jun-16 04:33N 29°54' W 090°05'0 0.2
2016-Jun-16 03:33N 29°54' W 090°05'0 0.0
2016-Jun-16 02:33N 29°54' W 090°05'1 0.8
2016-Jun-16 01:33N 29°55' W 090°05'2 2.1
2016-Jun-16 00:33N 29°54' W 090°07'2 2.0
2016-Jun-15 23:33N 29°55' W 090°05'4 3.6
2016-Jun-15 22:33N 29°51' W 090°04'3 3.0
2016-Jun-15 21:33N 29°54' W 090°05'2 1.9
2016-Jun-15 20:33N 29°54' W 090°07'0 0.4
2016-Jun-15 19:33N 29°54' W 090°07'1 0.8
2016-Jun-15 18:30N 29°55' W 090°06'1 0.8
2016-Jun-15 17:33N 29°54' W 090°07'0 0.1
2016-Jun-15 16:33N 29°54' W 090°07'0 0.0
2016-Jun-15 15:33N 29°54' W 090°07'0 0.0
2016-Jun-15 14:33N 29°54' W 090°07'0 0.0
2016-Jun-15 13:33N 29°54' W 090°07'0 0.3
2016-Jun-15 12:33N 29°54' W 090°07'0 0.0
2016-Jun-15 11:33N 29°54' W 090°07'0 0.0
2016-Jun-15 10:33N 29°54' W 090°07'0 0.0
2016-Jun-15 09:33N 29°54' W 090°07'  

Dump ship's entire track history